Time;durP1;ratioP1;P1;durP2;ratioP2;P2;SDS_P1;SDS_P2;PMS_P1;PMS_P2;Temp;Humidity;BMP_temperature;BMP_pressure;BME280_temperature;BME280_humidity;BME280_pressure;Samples;Min_cycle;Max_cycle;Signal;HPM_P1;HPM_P2
2023/01/04 00:02:03;;;;;;;18.05;13.35;;;7.10;99.90;;;;;;5032039;28;20289;-86
2023/01/04 00:04:31;;;;;;;13.43;11.90;;;7.00;99.90;;;;;;5031860;28;20206;-86
2023/01/04 00:06:59;;;;;;;14.05;12.57;;;7.00;99.90;;;;;;5031774;28;20232;-87
2023/01/04 00:09:27;;;;;;;15.98;13.32;;;7.00;99.90;;;;;;5031538;28;20220;-86
2023/01/04 00:11:56;;;;;;;16.50;14.73;;;7.00;99.90;;;;;;5031428;28;20202;-86
2023/01/04 00:14:24;;;;;;;16.20;12.98;;;6.90;99.90;;;;;;5030662;28;20210;-86
2023/01/04 00:16:52;;;;;;;14.98;13.48;;;6.90;99.90;;;;;;5031320;28;20229;-86
2023/01/04 00:19:22;;;;;;;15.65;14.13;;;6.90;99.90;;;;;;5031781;28;20221;-86
2023/01/04 00:21:50;;;;;;;16.05;13.13;;;6.90;99.90;;;;;;5032353;28;20206;-87
2023/01/04 00:24:19;;;;;;;14.23;12.75;;;6.90;99.90;;;;;;5031950;28;20290;-87
2023/01/04 00:26:47;;;;;;;15.20;13.70;;;6.90;99.90;;;;;;5031287;28;20307;-85
2023/01/04 00:29:15;;;;;;;16.70;14.88;;;6.90;99.90;;;;;;5031194;28;20198;-87
2023/01/04 00:31:44;;;;;;;14.98;13.45;;;6.80;99.90;;;;;;5031371;28;20210;-87
2023/01/04 00:34:15;;;;;;;15.32;13.73;;;6.70;99.90;;;;;;5031253;28;20257;-86
2023/01/04 00:36:45;;;;;;;16.60;14.90;;;6.70;99.90;;;;;;5030940;28;20268;-87
2023/01/04 00:39:15;;;;;;;16.98;14.38;;;6.70;99.90;;;;;;5030749;28;20212;-88
2023/01/04 00:41:45;;;;;;;19.67;15.88;;;6.60;99.90;;;;;;5030999;28;20209;-86
2023/01/04 00:44:29;;;;;;;19.70;14.23;;;6.60;99.90;;;;;;5031181;28;20229;-87
2023/01/04 00:46:58;;;;;;;13.52;12.25;;;6.60;99.90;;;;;;5030935;28;20239;-87
2023/01/04 00:49:28;;;;;;;14.20;12.75;;;6.50;99.90;;;;;;5030739;28;20245;-87
2023/01/04 00:51:58;;;;;;;15.07;13.57;;;6.50;99.90;;;;;;5031449;28;20290;-86
2023/01/04 00:54:28;;;;;;;16.70;14.40;;;6.40;99.90;;;;;;5031195;28;20287;-86
2023/01/04 00:56:57;;;;;;;16.33;14.60;;;6.40;99.90;;;;;;5030836;28;20337;-86
2023/01/04 00:59:25;;;;;;;16.13;13.23;;;6.40;99.90;;;;;;5030673;28;20264;-87
2023/01/04 01:01:54;;;;;;;19.23;12.63;;;6.40;99.90;;;;;;5030692;28;20202;-87
2023/01/04 01:04:24;;;;;;;15.38;13.18;;;6.40;99.90;;;;;;5011900;28;20210;-87
2023/01/04 01:06:53;;;;;;;29.65;13.48;;;6.30;99.90;;;;;;5030320;28;20225;-86
2023/01/04 01:09:23;;;;;;;16.88;14.50;;;6.40;99.90;;;;;;5027171;28;20286;-86
2023/01/04 01:11:51;;;;;;;16.30;14.25;;;6.40;99.90;;;;;;5028266;28;20211;-86
2023/01/04 01:14:22;;;;;;;17.55;13.63;;;6.40;99.90;;;;;;5030169;28;20233;-86
2023/01/04 01:16:51;;;;;;;14.57;13.18;;;6.40;99.90;;;;;;5030261;28;20250;-86
2023/01/04 01:19:28;;;;;;;20.02;13.23;;;6.40;99.90;;;;;;5030815;28;20210;-86
2023/01/04 01:21:57;;;;;;;16.38;14.68;;;6.40;99.90;;;;;;5031619;28;20211;-86
2023/01/04 01:24:27;;;;;;;16.52;13.82;;;6.40;99.90;;;;;;5032730;28;20204;-86
2023/01/04 01:26:56;;;;;;;16.30;13.77;;;6.30;99.90;;;;;;5032131;28;20222;-86
2023/01/04 01:29:24;;;;;;;19.05;15.15;;;6.30;99.90;;;;;;5032372;28;20204;-86
2023/01/04 01:31:53;;;;;;;15.88;13.95;;;6.30;99.90;;;;;;5032879;28;20286;-86
2023/01/04 01:34:21;;;;;;;19.02;15.40;;;6.20;99.90;;;;;;5032413;28;20226;-86
2023/01/04 01:36:50;;;;;;;16.92;15.13;;;6.20;99.90;;;;;;5032374;28;20238;-86
2023/01/04 01:39:18;;;;;;;17.10;15.40;;;6.20;99.90;;;;;;5032512;28;20223;-86
2023/01/04 01:41:49;;;;;;;17.90;15.98;;;6.20;99.90;;;;;;5032519;28;20203;-86
2023/01/04 01:45:09;;;;;;;22.80;18.00;;;6.20;99.90;;;;;;5032152;28;20226;-86
2023/01/04 01:47:41;;;;;;;20.90;18.75;;;6.10;99.90;;;;;;4999188;28;20214;-85
2023/01/04 01:50:22;;;;;;;23.00;16.42;;;6.10;99.90;;;;;;5032031;28;20217;-86
2023/01/04 01:52:51;;;;;;;16.45;14.85;;;6.10;99.90;;;;;;5032490;28;20202;-87
2023/01/04 01:55:20;;;;;;;19.92;17.88;;;6.00;99.90;;;;;;5032684;28;20227;-86
2023/01/04 01:57:52;;;;;;;21.85;17.70;;;6.00;99.90;;;;;;5031420;28;20210;-86
2023/01/04 02:00:20;;;;;;;21.40;16.83;;;6.00;99.90;;;;;;5032392;28;20289;-86
2023/01/04 02:02:57;;;;;;;19.15;16.83;;;6.00;99.90;;;;;;5032127;28;20210;-86
2023/01/04 02:05:28;;;;;;;17.98;16.13;;;6.00;99.90;;;;;;5032604;28;20236;-87
2023/01/04 02:07:56;;;;;;;19.38;17.30;;;6.00;99.90;;;;;;5032519;28;20210;-86
2023/01/04 02:10:25;;;;;;;22.00;18.25;;;6.00;99.90;;;;;;5032319;28;20202;-86
2023/01/04 02:12:55;;;;;;;19.63;17.63;;;6.00;99.90;;;;;;5032038;28;20199;-87
2023/01/04 02:15:27;;;;;;;21.15;16.60;;;6.00;99.90;;;;;;5031903;28;20230;-87
2023/01/04 02:18:05;;;;;;;22.23;17.83;;;5.90;99.90;;;;;;5031939;28;20203;-87
2023/01/04 02:20:42;;;;;;;20.60;18.08;;;5.90;99.90;;;;;;5032011;28;20210;-86
2023/01/04 02:24:01;;;;;;;18.60;16.63;;;5.90;99.90;;;;;;5032063;28;20208;-86
2023/01/04 02:26:58;;;;;;;19.30;17.35;;;5.90;99.90;;;;;;5027324;28;20222;-87
2023/01/04 02:29:59;;;;;;;24.48;19.42;;;5.90;99.90;;;;;;5031586;28;20199;-86
2023/01/04 02:32:41;;;;;;;18.90;16.98;;;5.90;99.90;;;;;;4999375;28;20224;-86
2023/01/04 02:35:21;;;;;;;23.08;18.52;;;5.90;99.90;;;;;;5031790;28;20226;-86
2023/01/04 02:37:53;;;;;;;25.55;18.88;;;5.90;99.90;;;;;;5033307;28;20214;-86
2023/01/04 02:40:29;;;;;;;20.52;18.13;;;5.90;99.90;;;;;;5035827;28;20194;-86
2023/01/04 02:45:55;;;;;;;21.70;18.90;;;5.90;99.90;;;;;;5035511;28;20305;-85
2023/01/04 02:51:27;;;;;;;21.08;17.98;;;5.80;99.90;;;;;;5035176;28;20208;-85
2023/01/04 02:53:58;;;;;;;20.02;17.88;;;5.80;99.90;;;;;;5035618;28;20214;-86
2023/01/04 02:56:36;;;;;;;18.98;16.83;;;5.80;99.90;;;;;;5035290;28;20232;-85
2023/01/04 02:59:24;;;;;;;20.73;17.88;;;5.70;99.90;;;;;;5035644;28;20198;-86
2023/01/04 03:07:53;;;;;;;22.17;18.63;;;5.60;99.90;;;;;;5034820;28;20290;-86
2023/01/04 03:10:31;;;;;;;20.83;18.23;;;5.60;99.90;;;;;;5035248;28;20206;-85
2023/01/04 03:13:06;;;;;;;24.15;19.73;;;5.50;99.90;;;;;;5035575;28;20198;-85
2023/01/04 03:15:38;;;;;;;20.02;17.92;;;5.50;99.90;;;;;;5035219;28;20226;-86
2023/01/04 03:18:14;;;;;;;23.13;18.70;;;5.50;99.90;;;;;;5034509;28;20195;-86
2023/01/04 03:20:46;;;;;;;19.05;16.70;;;5.50;99.90;;;;;;5035342;28;20206;-86
2023/01/04 03:37:44;;;;;;;24.23;18.58;;;5.20;99.90;;;;;;5030204;28;20218;-87
2023/01/04 03:48:58;;;;;;;23.20;18.45;;;5.10;99.90;;;;;;5034565;28;20233;-87
2023/01/04 03:51:31;;;;;;;22.73;18.35;;;5.00;99.90;;;;;;5034547;28;20213;-87
2023/01/04 03:54:05;;;;;;;19.83;17.38;;;5.00;99.90;;;;;;5034460;28;20202;-86
2023/01/04 03:56:37;;;;;;;22.35;17.83;;;4.90;99.90;;;;;;5034391;28;20233;-86
2023/01/04 03:59:05;;;;;;;22.23;17.48;;;5.00;99.90;;;;;;5034124;28;20277;-87
2023/01/04 04:01:35;;;;;;;19.42;17.30;;;4.90;99.90;;;;;;5034238;28;20282;-86
2023/01/04 04:09:37;;;;;;;26.05;17.15;;;4.90;99.90;;;;;;5034463;28;20198;-86
2023/01/04 04:12:05;;;;;;;21.77;18.13;;;4.80;99.90;;;;;;5020309;28;20203;-83
2023/01/04 04:14:34;;;;;;;17.88;16.00;;;4.80;99.90;;;;;;5033781;28;20214;-83
2023/01/04 04:17:02;;;;;;;18.50;16.58;;;4.80;99.90;;;;;;5033978;28;20211;-85
2023/01/04 04:19:30;;;;;;;20.90;16.25;;;4.80;99.90;;;;;;5033465;28;20230;-86
2023/01/04 04:21:59;;;;;;;19.85;17.15;;;4.80;99.90;;;;;;5033581;28;20204;-86
2023/01/04 04:24:27;;;;;;;19.10;16.70;;;4.80;99.90;;;;;;5015816;28;20213;-86
2023/01/04 04:26:57;;;;;;;22.85;18.05;;;4.80;99.90;;;;;;5019219;28;20229;-86
2023/01/04 04:29:25;;;;;;;22.15;18.77;;;4.80;99.90;;;;;;5034309;28;20207;-86
2023/01/04 04:31:53;;;;;;;20.08;17.33;;;4.70;99.90;;;;;;5033768;28;20216;-86
2023/01/04 04:34:22;;;;;;;19.48;16.35;;;4.70;99.90;;;;;;5033735;28;20253;-86
2023/01/04 04:36:50;;;;;;;20.52;15.90;;;4.70;99.90;;;;;;5033600;28;20242;-86
2023/01/04 04:39:19;;;;;;;17.15;15.48;;;4.80;99.90;;;;;;5033835;28;20295;-86
2023/01/04 04:41:46;;;;;;;17.70;15.73;;;4.70;99.90;;;;;;5033535;28;20210;-86
2023/01/04 04:44:17;;;;;;;18.83;16.75;;;4.70;99.90;;;;;;5033225;28;20232;-86
2023/01/04 04:46:47;;;;;;;19.05;16.15;;;4.70;99.90;;;;;;5032833;28;20222;-86
2023/01/04 04:49:15;;;;;;;22.88;17.45;;;4.70;99.90;;;;;;5033690;28;20214;-86
2023/01/04 04:51:44;;;;;;;17.50;15.70;;;4.80;99.90;;;;;;5033504;28;20209;-87
2023/01/04 04:54:17;;;;;;;20.70;17.23;;;4.80;99.90;;;;;;5033532;28;20210;-86
2023/01/04 04:56:45;;;;;;;18.38;16.33;;;4.80;99.90;;;;;;5033254;28;20294;-87
2023/01/04 04:59:15;;;;;;;14.50;13.15;;;4.70;99.90;;;;;;5032833;28;20218;-86
2023/01/04 05:01:43;;;;;;;21.15;16.67;;;4.70;99.90;;;;;;5033198;28;20225;-86
2023/01/04 05:04:15;;;;;;;17.20;15.15;;;4.70;99.90;;;;;;5033369;28;20214;-86
2023/01/04 05:06:44;;;;;;;24.40;17.90;;;4.70;99.90;;;;;;5033163;28;20222;-86
2023/01/04 05:09:13;;;;;;;19.55;17.52;;;4.60;99.90;;;;;;5033099;28;20298;-85
2023/01/04 05:14:29;;;;;;;20.63;18.40;;;4.60;99.90;;;;;;5033103;28;20209;-86
2023/01/04 05:16:57;;;;;;;20.20;18.02;;;4.50;99.90;;;;;;5032110;28;20297;-86
2023/01/04 05:19:25;;;;;;;22.10;18.83;;;4.40;99.90;;;;;;5033180;28;20298;-86
2023/01/04 05:21:53;;;;;;;22.60;18.85;;;4.30;99.90;;;;;;5032894;28;20206;-87
2023/01/04 05:24:22;;;;;;;23.88;18.55;;;4.30;99.90;;;;;;5032678;28;20215;-86
2023/01/04 05:26:50;;;;;;;22.33;19.08;;;4.20;99.90;;;;;;5032584;28;20226;-87
2023/01/04 05:32:02;;;;;;;20.80;18.67;;;4.10;99.90;;;;;;5032176;28;20318;-86
2023/01/04 05:34:30;;;;;;;23.42;19.45;;;4.10;99.90;;;;;;5032808;28;20205;-86
2023/01/04 05:36:58;;;;;;;33.88;20.83;;;4.00;99.90;;;;;;5032239;28;20288;-86
2023/01/04 05:39:26;;;;;;;26.15;20.13;;;4.00;99.90;;;;;;5032591;28;20202;-86
2023/01/04 05:44:40;;;;;;;23.38;20.00;;;4.00;99.90;;;;;;5032890;28;20206;-87
2023/01/04 05:47:10;;;;;;;21.67;19.00;;;4.00;99.90;;;;;;5031980;28;20216;-87
2023/01/04 05:49:42;;;;;;;24.80;21.15;;;4.00;99.90;;;;;;5032379;28;20259;-86
2023/01/04 05:52:11;;;;;;;20.35;18.27;;;4.00;99.90;;;;;;5032227;28;20279;-86
2023/01/04 05:54:40;;;;;;;19.95;17.92;;;4.00;99.90;;;;;;5032305;28;20198;-86
2023/01/04 05:57:08;;;;;;;26.02;19.48;;;4.00;99.90;;;;;;5032611;28;20233;-86
2023/01/04 05:59:37;;;;;;;22.67;19.23;;;4.00;99.90;;;;;;5032048;28;20213;-83
2023/01/04 06:02:15;;;;;;;20.73;17.35;;;4.00;99.90;;;;;;5032768;28;20212;-84
2023/01/04 06:04:43;;;;;;;22.27;17.27;;;4.00;99.90;;;;;;5032576;28;20213;-84
2023/01/04 06:07:12;;;;;;;20.08;16.67;;;4.10;99.90;;;;;;5031663;28;20210;-83
2023/01/04 06:09:41;;;;;;;19.60;17.15;;;4.10;99.90;;;;;;5031994;28;20191;-84
2023/01/04 06:12:09;;;;;;;19.92;16.58;;;4.20;99.90;;;;;;5032859;28;20222;-84
2023/01/04 06:14:37;;;;;;;19.52;16.15;;;4.20;99.90;;;;;;5035900;28;20206;-84
2023/01/04 06:17:06;;;;;;;26.10;16.63;;;4.10;99.90;;;;;;5036133;28;20230;-84
2023/01/04 06:19:36;;;;;;;16.23;14.38;;;4.10;99.90;;;;;;5035917;28;20278;-84
2023/01/04 06:22:04;;;;;;;17.25;15.30;;;4.10;99.90;;;;;;5036226;28;20202;-84
2023/01/04 06:24:33;;;;;;;18.45;16.60;;;4.10;99.90;;;;;;5036021;28;20203;-83
2023/01/04 06:27:02;;;;;;;19.80;16.25;;;4.00;99.90;;;;;;5035846;28;20206;-84
2023/01/04 06:29:30;;;;;;;17.15;15.35;;;4.00;99.90;;;;;;5035768;28;20202;-84
2023/01/04 06:31:59;;;;;;;17.13;14.98;;;4.00;99.90;;;;;;5036356;28;20217;-84
2023/01/04 06:34:27;;;;;;;17.77;15.85;;;3.90;99.90;;;;;;5036127;28;20242;-84
2023/01/04 06:37:00;;;;;;;20.33;15.25;;;3.90;99.90;;;;;;5035662;28;20234;-84
2023/01/04 06:39:29;;;;;;;16.98;14.98;;;3.80;99.90;;;;;;5035916;28;20206;-84
2023/01/04 06:41:57;;;;;;;22.90;17.08;;;3.80;99.90;;;;;;5035703;28;20217;-84
2023/01/04 06:44:33;;;;;;;16.38;14.75;;;3.80;99.90;;;;;;5035980;28;20213;-84
2023/01/04 06:47:01;;;;;;;19.10;16.13;;;3.80;99.90;;;;;;5035315;28;20252;-84
2023/01/04 06:49:30;;;;;;;19.42;17.40;;;3.70;99.90;;;;;;5035746;28;20258;-85
2023/01/04 06:51:59;;;;;;;16.77;14.60;;;3.70;99.90;;;;;;5035701;28;20222;-85
2023/01/04 06:54:28;;;;;;;27.48;17.17;;;3.70;99.90;;;;;;5035765;28;20217;-84
2023/01/04 06:56:56;;;;;;;18.25;15.32;;;3.60;99.90;;;;;;5034771;28;20227;-84
2023/01/04 06:59:25;;;;;;;18.63;16.20;;;3.60;99.90;;;;;;5035884;28;20214;-86
2023/01/04 07:01:53;;;;;;;21.17;16.00;;;3.70;99.90;;;;;;5035486;28;20210;-84
2023/01/04 07:04:21;;;;;;;20.58;18.05;;;3.70;99.90;;;;;;5035530;28;20214;-84
2023/01/04 07:06:50;;;;;;;20.88;18.63;;;3.70;99.90;;;;;;5035028;28;20229;-85
2023/01/04 07:09:20;;;;;;;22.35;18.15;;;3.70;99.90;;;;;;5035100;28;20237;-85
2023/01/04 07:11:48;;;;;;;30.00;19.48;;;3.70;99.90;;;;;;5031767;28;20203;-85
2023/01/04 07:14:16;;;;;;;18.48;16.30;;;3.70;99.90;;;;;;5035382;28;20226;-84
2023/01/04 07:16:44;;;;;;;19.98;17.70;;;3.70;99.90;;;;;;5034823;28;20230;-85
2023/01/04 07:19:13;;;;;;;22.88;18.80;;;3.60;99.90;;;;;;5035328;28;20206;-84
2023/01/04 07:21:41;;;;;;;20.08;17.13;;;3.60;99.90;;;;;;5035408;28;20210;-84
2023/01/04 07:24:10;;;;;;;18.80;16.70;;;3.50;99.90;;;;;;5034401;28;20214;-84
2023/01/04 07:26:39;;;;;;;18.13;16.23;;;3.50;99.90;;;;;;5034976;28;20250;-84
2023/01/04 07:29:15;;;;;;;18.13;16.13;;;3.50;99.90;;;;;;5034779;28;20241;-84
2023/01/04 07:31:46;;;;;;;17.95;15.98;;;3.50;99.90;;;;;;5034853;28;20229;-84
2023/01/04 07:34:17;;;;;;;45.13;17.50;;;3.50;99.90;;;;;;5035015;28;20233;-84
2023/01/04 07:36:46;;;;;;;20.58;16.70;;;3.50;99.90;;;;;;5034352;28;20240;-84
2023/01/04 07:39:15;;;;;;;22.48;16.73;;;3.50;99.90;;;;;;5034760;28;20258;-84
2023/01/04 07:41:45;;;;;;;19.90;16.08;;;3.50;99.90;;;;;;5034692;28;20315;-84
2023/01/04 07:44:14;;;;;;;25.40;16.15;;;3.40;99.90;;;;;;5034836;28;20202;-84
2023/01/04 07:46:43;;;;;;;27.25;16.40;;;3.50;99.90;;;;;;5034803;28;20226;-84
2023/01/04 07:49:13;;;;;;;15.68;14.10;;;3.50;99.90;;;;;;5034241;28;20257;-84
2023/01/04 07:51:45;;;;;;;17.63;15.18;;;3.50;99.90;;;;;;5024340;28;20252;-84
2023/01/04 07:54:14;;;;;;;16.33;14.57;;;3.50;99.90;;;;;;5034455;28;20284;-84
2023/01/04 07:56:43;;;;;;;21.77;16.38;;;3.50;99.90;;;;;;5016960;28;20227;-89
2023/01/04 07:59:15;;;;;;;19.30;15.38;;;3.50;99.90;;;;;;5022200;28;20209;-88
2023/01/04 08:01:43;;;;;;;16.65;14.77;;;3.50;99.90;;;;;;5033991;28;20225;-87
2023/01/04 08:04:13;;;;;;;16.50;14.65;;;3.50;99.90;;;;;;5033981;28;20210;-85
2023/01/04 08:06:45;;;;;;;16.00;14.30;;;3.60;99.90;;;;;;5033601;28;20249;-87
2023/01/04 08:09:13;;;;;;;16.63;14.07;;;3.60;99.90;;;;;;5034162;28;20221;-86
2023/01/04 08:11:42;;;;;;;19.40;14.88;;;3.60;99.90;;;;;;5033846;28;20214;-88
2023/01/04 08:14:20;;;;;;;18.05;14.93;;;3.70;99.90;;;;;;5031782;28;20218;-90
2023/01/04 08:17:08;;;;;;;16.73;14.30;;;3.70;99.90;;;;;;5026021;28;20214;-90
2023/01/04 08:19:37;;;;;;;17.25;13.88;;;3.70;99.90;;;;;;5021958;28;20201;-90
2023/01/04 08:22:05;;;;;;;15.18;13.65;;;3.70;99.90;;;;;;5026441;28;20234;-91
2023/01/04 08:24:34;;;;;;;18.52;14.45;;;3.80;99.90;;;;;;5025678;28;20281;-90
2023/01/04 08:27:03;;;;;;;18.95;15.27;;;3.80;99.90;;;;;;5033389;28;20287;-90
2023/01/04 08:29:33;;;;;;;16.45;14.75;;;3.80;99.90;;;;;;5033664;28;20333;-90
2023/01/04 08:32:03;;;;;;;17.83;14.73;;;3.90;99.90;;;;;;5033864;28;20272;-91
2023/01/04 08:34:32;;;;;;;17.13;15.05;;;3.90;99.90;;;;;;5033372;28;20202;-91
2023/01/04 08:37:00;;;;;;;16.65;14.93;;;3.90;99.90;;;;;;5033362;28;20227;-90
2023/01/04 08:39:34;;;;;;;17.13;15.32;;;4.00;99.90;;;;;;5033715;28;20202;-90
2023/01/04 08:42:03;;;;;;;18.83;14.15;;;4.00;99.90;;;;;;5032590;28;20233;-92
2023/01/04 08:44:49;;;;;;;15.60;14.00;;;4.10;99.90;;;;;;5033100;28;20202;-91
2023/01/04 08:47:26;;;;;;;17.90;14.18;;;4.10;99.90;;;;;;5020203;28;20290;-91
2023/01/04 08:49:54;;;;;;;14.57;13.05;;;4.20;99.90;;;;;;5025770;28;20198;-89
2023/01/04 08:52:26;;;;;;;15.75;13.20;;;4.30;99.90;;;;;;5018389;28;20207;-91
2023/01/04 08:54:55;;;;;;;14.50;13.10;;;4.30;99.90;;;;;;5013419;28;20209;-88
2023/01/04 08:57:24;;;;;;;15.18;13.25;;;4.40;99.90;;;;;;5024778;28;20214;-88
2023/01/04 08:59:54;;;;;;;12.75;11.43;;;4.50;99.90;;;;;;5032707;28;20271;-88
2023/01/04 09:02:25;;;;;;;12.73;11.43;;;4.60;99.90;;;;;;5033020;28;20206;-88
2023/01/04 09:04:59;;;;;;;13.68;12.32;;;4.60;99.90;;;;;;5033675;28;20202;-87
2023/01/04 09:07:29;;;;;;;12.05;10.82;;;4.70;99.90;;;;;;5033327;28;20284;-90
2023/01/04 09:09:59;;;;;;;11.57;10.50;;;4.80;99.90;;;;;;5033306;28;20306;-90
2023/01/04 09:12:37;;;;;;;12.52;10.90;;;4.80;99.90;;;;;;5032556;28;20202;-90
2023/01/04 09:15:08;;;;;;;10.07;9.10;;;4.80;99.90;;;;;;5032696;28;20222;-89
2023/01/04 09:17:36;;;;;;;12.63;11.43;;;4.90;99.90;;;;;;5032548;28;20253;-89
2023/01/04 09:20:25;;;;;;;11.68;10.57;;;4.90;99.90;;;;;;5033174;28;20209;-87
2023/01/04 09:22:53;;;;;;;17.88;12.48;;;5.00;99.90;;;;;;5032730;28;20241;-89
2023/01/04 09:25:25;;;;;;;11.90;10.73;;;5.10;99.90;;;;;;5032806;28;20272;-89
2023/01/04 09:27:53;;;;;;;15.00;10.90;;;5.10;99.90;;;;;;5032624;28;20256;-87
2023/01/04 09:30:23;;;;;;;11.80;10.60;;;5.20;99.90;;;;;;5032514;28;20285;-87
2023/01/04 09:32:52;;;;;;;12.75;11.25;;;5.20;99.90;;;;;;5032783;28;20242;-87
2023/01/04 09:35:20;;;;;;;10.57;9.50;;;5.30;99.90;;;;;;5032595;28;20230;-87
2023/01/04 09:37:49;;;;;;;13.73;11.50;;;5.30;99.90;;;;;;5031660;28;20241;-90
2023/01/04 09:40:22;;;;;;;11.98;9.95;;;5.40;99.90;;;;;;5032513;28;20270;-91
2023/01/04 09:42:52;;;;;;;11.98;10.43;;;5.50;99.90;;;;;;5025733;28;20206;-87
2023/01/04 09:45:42;;;;;;;10.65;9.55;;;5.50;99.90;;;;;;5032961;28;20317;-89
2023/01/04 09:48:15;;;;;;;13.98;10.55;;;5.60;99.90;;;;;;5031986;28;20195;-89
2023/01/04 09:50:56;;;;;;;11.85;9.80;;;5.80;99.90;;;;;;5020017;28;20210;-89
2023/01/04 09:53:29;;;;;;;9.60;8.68;;;5.90;99.90;;;;;;5032295;28;20270;-89
2023/01/04 09:56:08;;;;;;;11.27;9.45;;;6.00;99.90;;;;;;5016700;28;20261;-89
2023/01/04 09:58:39;;;;;;;10.20;8.05;;;6.10;99.90;;;;;;5031583;28;20214;-89
2023/01/04 10:01:15;;;;;;;7.90;7.20;;;6.10;99.90;;;;;;5032713;28;20294;-89
2023/01/04 10:03:50;;;;;;;9.57;7.75;;;6.40;99.90;;;;;;5032554;28;20209;-89
2023/01/04 10:06:19;;;;;;;6.97;6.35;;;6.50;99.90;;;;;;5031537;28;20238;-89
2023/01/04 10:08:47;;;;;;;8.05;7.07;;;6.70;99.90;;;;;;5012304;28;20203;-89
2023/01/04 10:11:31;;;;;;;7.57;6.20;;;6.90;99.90;;;;;;5012491;28;20211;-89
2023/01/04 10:14:24;;;;;;;5.05;4.60;;;7.00;99.90;;;;;;5012783;28;20294;-89
2023/01/04 10:17:11;;;;;;;8.25;4.85;;;7.20;99.90;;;;;;5012297;28;20229;-89
2023/01/04 10:20:02;;;;;;;5.15;4.65;;;7.40;99.90;;;;;;5029948;28;20208;-89
2023/01/04 10:22:56;;;;;;;13.63;4.38;;;7.60;99.90;;;;;;5032092;28;20198;-89
2023/01/04 10:25:30;;;;;;;4.93;4.45;;;7.80;99.90;;;;;;5031938;28;20209;-90
2023/01/04 10:28:14;;;;;;;5.35;4.63;;;8.10;99.90;;;;;;5032098;28;20244;-88
2023/01/04 10:30:52;;;;;;;4.05;3.58;;;8.40;99.90;;;;;;5030611;28;20221;-88
2023/01/04 10:33:29;;;;;;;5.18;4.38;;;8.80;99.90;;;;;;5032169;28;20222;-88
2023/01/04 10:36:01;;;;;;;3.85;3.55;;;9.30;99.90;;;;;;5026278;28;20230;-87
2023/01/04 10:38:38;;;;;;;4.35;3.92;;;9.90;99.90;;;;;;5031067;28;20206;-88
2023/01/04 10:41:12;;;;;;;3.72;3.38;;;10.50;99.90;;;;;;5031680;28;20235;-90
2023/01/04 10:43:48;;;;;;;3.72;3.22;;;11.50;99.90;;;;;;5024034;28;20199;-89
2023/01/04 10:46:44;;;;;;;3.20;3.00;;;12.20;99.90;;;;;;5012260;28;20231;-89
2023/01/04 10:49:20;;;;;;;2.80;2.60;;;12.70;99.90;;;;;;5023243;28;20202;-88
2023/01/04 10:51:57;;;;;;;3.58;3.00;;;12.90;99.90;;;;;;5031966;28;20220;-89
2023/01/04 10:54:31;;;;;;;3.83;3.28;;;12.90;99.90;;;;;;5032150;28;20216;-89
2023/01/04 10:57:04;;;;;;;3.08;2.78;;;13.30;99.90;;;;;;5031278;28;20213;-89
2023/01/04 10:59:38;;;;;;;2.83;2.63;;;13.60;99.90;;;;;;5034862;28;20280;-89
2023/01/04 11:02:16;;;;;;;3.35;2.88;;;13.70;99.90;;;;;;5035344;28;20206;-89
2023/01/04 11:04:52;;;;;;;2.78;2.58;;;13.80;99.90;;;;;;5031738;28;20202;-89
2023/01/04 11:07:25;;;;;;;2.42;2.28;;;13.80;99.90;;;;;;5023458;28;20202;-88
2023/01/04 11:09:59;;;;;;;2.60;2.42;;;13.70;99.90;;;;;;5026331;28;20215;-88
2023/01/04 11:12:28;;;;;;;2.47;2.33;;;13.50;99.90;;;;;;5025142;28;20228;-88
2023/01/04 11:14:56;;;;;;;3.22;2.70;;;13.40;99.90;;;;;;5023835;28;20227;-88
2023/01/04 11:17:26;;;;;;;2.80;2.60;;;13.50;99.90;;;;;;5026285;28;20200;-88
2023/01/04 11:19:56;;;;;;;3.00;2.58;;;14.00;99.90;;;;;;5023917;28;20243;-88
2023/01/04 11:22:30;;;;;;;2.72;2.53;;;14.40;99.90;;;;;;5024603;28;20198;-89
2023/01/04 11:25:03;;;;;;;2.45;2.25;;;14.60;99.90;;;;;;5025866;28;20218;-89
2023/01/04 11:27:57;;;;;;;2.28;2.08;;;14.30;99.90;;;;;;5025585;28;20202;-89
2023/01/04 11:44:51;;;;;;;3.58;2.95;;;15.80;99.90;;;;;;4878497;29;20203;-88
2023/01/04 11:47:50;;;;;;;2.95;2.63;;;15.10;99.90;;;;;;4907927;28;20209;-88
2023/01/04 12:00:53;;;;;;;2.25;2.15;;;15.40;99.90;;;;;;5130277;27;20582;-89
2023/01/04 12:03:28;;;;;;;3.58;3.10;;;15.30;99.90;;;;;;5130822;28;20199;-89
2023/01/04 12:05:56;;;;;;;2.88;2.67;;;15.50;99.90;;;;;;5130663;28;20278;-89
2023/01/04 12:08:30;;;;;;;2.80;2.60;;;15.60;99.90;;;;;;5130526;28;20202;-89
2023/01/04 12:11:00;;;;;;;2.35;2.15;;;15.60;99.90;;;;;;5130778;28;20222;-89
2023/01/04 12:13:29;;;;;;;2.80;2.60;;;15.40;99.90;;;;;;5130660;28;20195;-89
2023/01/04 12:16:08;;;;;;;3.00;2.70;;;15.10;99.90;;;;;;5130444;28;20215;-88
2023/01/04 12:18:39;;;;;;;2.22;2.13;;;15.30;99.90;;;;;;5130107;28;20213;-88
2023/01/04 12:21:16;;;;;;;3.28;2.60;;;15.30;99.90;;;;;;5130563;28;20196;-91
2023/01/04 12:23:45;;;;;;;3.28;2.80;;;15.10;99.90;;;;;;5130305;28;20199;-91
2023/01/04 12:26:15;;;;;;;3.35;2.88;;;15.00;99.90;;;;;;5130361;27;20250;-88
2023/01/04 12:28:46;;;;;;;3.00;2.70;;;15.00;99.90;;;;;;5129921;27;20211;-90
2023/01/04 12:31:31;;;;;;;3.33;2.97;;;15.00;99.90;;;;;;5129467;28;20191;-92
2023/01/04 12:34:15;;;;;;;2.63;2.42;;;14.90;99.90;;;;;;5129909;27;20263;-92
2023/01/04 12:36:58;;;;;;;2.72;2.53;;;14.90;99.90;;;;;;5129438;28;20302;-90
2023/01/04 12:39:41;;;;;;;2.75;2.42;;;15.00;99.90;;;;;;5129923;27;20222;-90
2023/01/04 12:42:14;;;;;;;2.95;2.28;;;15.00;99.90;;;;;;5130193;28;20227;-87
2023/01/04 12:45:10;;;;;;;4.13;2.75;;;15.00;99.90;;;;;;5128504;27;20215;-76
2023/01/04 12:51:21;;;;;;;3.35;2.55;;;15.60;99.90;;;;;;5130189;28;20207;-76
2023/01/04 12:54:01;;;;;;;2.70;2.40;;;15.90;99.90;;;;;;5122458;28;20234;-85
2023/01/04 12:57:03;;;;;;;4.05;2.33;;;16.30;99.90;;;;;;5129148;28;20215;-75
2023/01/04 13:03:35;;;;;;;4.60;2.70;;;16.30;99.90;;;;;;5070479;28;20200;-86
2023/01/04 13:06:16;;;;;;;2.55;2.35;;;16.00;99.90;;;;;;5129304;28;20223;-87
2023/01/04 13:08:46;;;;;;;3.42;2.42;;;15.90;99.90;;;;;;5129436;28;20209;-87
2023/01/04 13:11:41;;;;;;;3.53;3.22;;;16.10;99.90;;;;;;5120358;28;20215;-88
2023/01/04 13:14:18;;;;;;;3.30;3.00;;;15.80;99.90;;;;;;5115666;28;20195;-90
2023/01/04 13:17:00;;;;;;;3.45;2.53;;;15.50;99.90;;;;;;5115462;28;20219;-89
2023/01/04 13:19:28;;;;;;;2.03;1.92;;;15.60;99.90;;;;;;5116252;28;20226;-88
2023/01/04 13:21:59;;;;;;;3.03;2.72;;;15.80;99.90;;;;;;5115391;28;20203;-88
2023/01/04 13:24:30;;;;;;;2.10;2.00;;;15.80;99.90;;;;;;5115549;28;20195;-88
2023/01/04 13:27:06;;;;;;;2.72;2.53;;;15.70;99.90;;;;;;5115543;28;20255;-87
2023/01/04 13:29:36;;;;;;;2.92;2.58;;;15.80;99.90;;;;;;5115901;28;20207;-88
2023/01/04 13:32:10;;;;;;;2.25;2.15;;;15.80;99.90;;;;;;5117244;28;20196;-87
2023/01/04 13:34:41;;;;;;;2.30;2.20;;;15.80;99.90;;;;;;5116712;28;20203;-87
2023/01/04 13:37:18;;;;;;;2.60;2.40;;;15.50;99.90;;;;;;5114917;28;20295;-88
2023/01/04 13:39:49;;;;;;;2.72;2.45;;;15.20;99.90;;;;;;5115395;28;20224;-88
2023/01/04 13:42:24;;;;;;;2.40;2.20;;;15.20;99.90;;;;;;5115185;28;20207;-89
2023/01/04 13:45:24;;;;;;;3.10;2.00;;;14.80;99.90;;;;;;5115255;28;20218;-86
2023/01/04 13:47:57;;;;;;;2.47;2.28;;;14.30;99.90;;;;;;5095095;28;20256;-88
2023/01/04 13:50:33;;;;;;;3.03;2.72;;;14.10;99.90;;;;;;5115444;28;20298;-88
2023/01/04 13:53:05;;;;;;;5.13;3.05;;;13.80;99.90;;;;;;5114961;28;20286;-86
2023/01/04 13:55:37;;;;;;;2.38;2.08;;;13.50;99.90;;;;;;5114847;28;20314;-87
2023/01/04 13:58:15;;;;;;;2.17;2.08;;;13.30;99.90;;;;;;5115173;28;20199;-87
2023/01/04 14:01:04;;;;;;;4.03;2.70;;;13.20;99.90;;;;;;5114844;28;20215;-87
2023/01/04 14:03:40;;;;;;;4.45;1.92;;;13.00;99.90;;;;;;5114533;28;20211;-86
2023/01/04 14:06:19;;;;;;;2.13;1.92;;;12.90;99.90;;;;;;5114944;28;20220;-86
2023/01/04 14:08:58;;;;;;;4.93;3.35;;;12.90;99.90;;;;;;5114198;28;20243;-87
2023/01/04 14:14:20;;;;;;;1.92;1.83;;;12.60;99.90;;;;;;5114654;28;20220;-86
2023/01/04 14:20:37;;;;;;;2.67;2.38;;;12.20;99.90;;;;;;5103399;28;20224;-87
2023/01/04 14:23:26;;;;;;;3.22;2.72;;;12.00;99.90;;;;;;5113575;28;20203;-86
2023/01/04 14:25:56;;;;;;;4.13;2.20;;;11.90;99.90;;;;;;5114693;28;20223;-86
2023/01/04 14:28:39;;;;;;;2.47;2.05;;;11.70;99.90;;;;;;5114617;28;20203;-86
2023/01/04 14:34:17;;;;;;;3.20;2.33;;;11.50;99.90;;;;;;5112523;28;20219;-87
2023/01/04 14:36:51;;;;;;;2.05;1.95;;;11.40;99.90;;;;;;5113796;28;20230;-86
2023/01/04 14:40:13;;;;;;;3.20;2.33;;;11.30;99.90;;;;;;5113605;28;20196;-87
2023/01/04 14:42:52;;;;;;;3.30;2.85;;;11.20;99.90;;;;;;5111688;28;20191;-87